createdAt,value
2023-01-21T00:02:21.016Z,-0.70
2023-01-21T00:04:49.203Z,-0.70
2023-01-21T00:07:17.385Z,-0.70
2023-01-21T00:09:48.895Z,-0.70
2023-01-21T00:12:17.034Z,-0.70
2023-01-21T00:14:45.139Z,-0.70
2023-01-21T00:17:13.214Z,-0.70
2023-01-21T00:19:43.601Z,-0.70
2023-01-21T00:22:13.897Z,-0.70
2023-01-21T00:24:42.000Z,-0.70
2023-01-21T00:27:11.493Z,-0.70
2023-01-21T00:29:39.612Z,-0.70
2023-01-21T00:32:07.842Z,-0.70
2023-01-21T00:34:36.088Z,-0.70
2023-01-21T00:37:06.754Z,-0.70
2023-01-21T00:39:37.145Z,-0.80
2023-01-21T00:42:05.240Z,-0.80
2023-01-21T00:44:34.709Z,-0.80
2023-01-21T00:47:02.799Z,-0.80
2023-01-21T00:49:30.911Z,-0.80
2023-01-21T00:52:01.560Z,-0.80
2023-01-21T00:54:31.291Z,-0.80
2023-01-21T00:56:59.838Z,-0.80
2023-01-21T00:59:28.316Z,-0.80
2023-01-21T01:01:58.033Z,-0.80
2023-01-21T01:04:26.243Z,-0.90
2023-01-21T01:06:54.472Z,-0.90
2023-01-21T01:09:22.685Z,-0.90
2023-01-21T01:11:50.922Z,-0.90
2023-01-21T01:14:20.511Z,-0.90
2023-01-21T01:16:50.393Z,-0.90
2023-01-21T01:19:20.033Z,-0.90
2023-01-21T01:21:51.291Z,-0.90
2023-01-21T01:24:21.739Z,-0.90
2023-01-21T01:26:49.883Z,-0.90
2023-01-21T01:29:20.326Z,-0.90
2023-01-21T01:31:48.610Z,-1.00
2023-01-21T01:34:16.717Z,-1.00
2023-01-21T01:36:46.252Z,-1.00
2023-01-21T01:39:17.030Z,-1.00
2023-01-21T01:41:45.219Z,-1.00
2023-01-21T01:44:50.479Z,-1.00
2023-01-21T01:47:21.671Z,-1.10
2023-01-21T01:49:49.993Z,-1.10
2023-01-21T01:52:24.000Z,-1.10
2023-01-21T01:54:57.159Z,-1.10
2023-01-21T01:57:35.297Z,-1.10
2023-01-21T02:00:07.824Z,-1.10
2023-01-21T02:02:40.865Z,-1.10
2023-01-21T02:05:12.550Z,-1.20
2023-01-21T02:07:45.046Z,-1.20
2023-01-21T02:10:20.746Z,-1.20
2023-01-21T02:12:48.867Z,-1.20
2023-01-21T02:15:17.326Z,-1.30
2023-01-21T02:17:58.735Z,-1.20
2023-01-21T02:21:03.465Z,-1.30
2023-01-21T02:23:53.431Z,-1.20
2023-01-21T02:27:03.319Z,-1.20
2023-01-21T02:30:01.915Z,-1.30
2023-01-21T02:32:55.327Z,-1.20
2023-01-21T02:35:29.214Z,-1.20
2023-01-21T02:38:06.976Z,-1.20
2023-01-21T02:40:45.588Z,-1.20
2023-01-21T02:43:19.242Z,-1.20
2023-01-21T02:45:52.459Z,-1.30
2023-01-21T02:48:29.604Z,-1.30
2023-01-21T02:50:57.940Z,-1.30
2023-01-21T02:53:28.743Z,-1.30
2023-01-21T02:55:58.774Z,-1.30
2023-01-21T02:58:33.125Z,-1.30
2023-01-21T03:01:12.498Z,-1.30
2023-01-21T03:03:57.095Z,-1.30
2023-01-21T03:06:42.296Z,-1.30
2023-01-21T03:09:20.954Z,-1.40
2023-01-21T03:12:08.991Z,-1.40
2023-01-21T03:15:03.652Z,-1.40
2023-01-21T03:17:37.657Z,-1.40
2023-01-21T03:20:12.497Z,-1.30
2023-01-21T03:22:41.315Z,-1.40
2023-01-21T03:25:14.530Z,-1.40
2023-01-21T03:27:45.876Z,-1.40
2023-01-21T03:30:18.692Z,-1.40
2023-01-21T03:32:50.129Z,-1.40
2023-01-21T03:35:24.856Z,-1.50
2023-01-21T03:37:59.155Z,-1.50
2023-01-21T03:40:29.608Z,-1.50
2023-01-21T03:43:00.393Z,-1.50
2023-01-21T03:45:40.946Z,-1.50
2023-01-21T03:48:18.262Z,-1.60
2023-01-21T03:50:53.192Z,-1.60
2023-01-21T03:53:23.588Z,-1.60
2023-01-21T03:55:54.177Z,-1.60
2023-01-21T03:58:22.268Z,-1.60
2023-01-21T04:00:50.374Z,-1.60
2023-01-21T04:03:18.566Z,-1.60
2023-01-21T04:05:48.007Z,-1.60
2023-01-21T04:08:16.107Z,-1.70
2023-01-21T04:10:46.758Z,-1.60
2023-01-21T04:13:14.839Z,-1.70
2023-01-21T04:15:42.871Z,-1.60
2023-01-21T04:18:10.906Z,-1.70
2023-01-21T04:20:38.980Z,-1.70
2023-01-21T04:23:08.464Z,-1.60
2023-01-21T04:25:36.627Z,-1.60
2023-01-21T04:28:05.046Z,-1.60
2023-01-21T04:30:33.215Z,-1.60
2023-01-21T04:33:03.540Z,-1.60
2023-01-21T04:35:31.656Z,-1.60
2023-01-21T04:37:59.798Z,-1.60
2023-01-21T04:40:29.286Z,-1.60
2023-01-21T04:42:59.691Z,-1.50
2023-01-21T04:45:27.734Z,-1.50
2023-01-21T04:47:55.824Z,-1.50
2023-01-21T04:50:27.094Z,-1.40
2023-01-21T04:52:55.142Z,-1.40
2023-01-21T04:55:25.425Z,-1.40
2023-01-21T04:57:57.754Z,-1.40
2023-01-21T05:00:25.996Z,-1.30
2023-01-21T05:02:54.097Z,-1.30
2023-01-21T05:05:24.541Z,-1.30
2023-01-21T05:07:55.370Z,-1.30
2023-01-21T05:10:23.490Z,-1.20
2023-01-21T05:12:51.588Z,-1.20
2023-01-21T05:15:21.163Z,-1.20
2023-01-21T05:17:49.210Z,-1.20
2023-01-21T05:20:20.177Z,-1.20
2023-01-21T05:22:48.827Z,-1.20
2023-01-21T05:25:19.859Z,-1.20
2023-01-21T05:27:53.112Z,-1.10
2023-01-21T05:30:24.850Z,-1.20
2023-01-21T05:32:53.177Z,-1.10
2023-01-21T05:35:21.904Z,-1.20
2023-01-21T05:37:50.203Z,-1.20
2023-01-21T05:40:19.407Z,-1.20
2023-01-21T05:42:47.997Z,-1.20
2023-01-21T05:45:16.206Z,-1.10
2023-01-21T05:47:45.697Z,-1.10
2023-01-21T05:50:13.811Z,-1.10
2023-01-21T05:52:41.929Z,-1.10
2023-01-21T05:55:10.177Z,-1.10
2023-01-21T05:57:40.527Z,-1.10
2023-01-21T06:00:10.159Z,-1.10
2023-01-21T06:02:38.264Z,-1.10
2023-01-21T06:05:08.769Z,-1.10
2023-01-21T06:07:39.216Z,-1.10
2023-01-21T06:10:08.652Z,-1.10
2023-01-21T06:12:36.801Z,-1.00
2023-01-21T06:15:05.374Z,-1.00
2023-01-21T06:17:33.392Z,-1.00
2023-01-21T06:20:01.580Z,-1.00
2023-01-21T06:22:31.080Z,-1.00
2023-01-21T06:24:59.157Z,-0.90
2023-01-21T06:27:27.345Z,-0.90
2023-01-21T06:29:55.430Z,-0.90
2023-01-21T06:32:23.493Z,-0.80
2023-01-21T06:34:53.875Z,-0.90
2023-01-21T06:37:21.968Z,-0.80
2023-01-21T06:39:53.902Z,-0.80
2023-01-21T06:42:22.524Z,-0.80
2023-01-21T06:44:50.602Z,-0.70
2023-01-21T06:47:18.804Z,-0.70
2023-01-21T06:49:48.994Z,-0.70
2023-01-21T06:52:18.409Z,-0.70
2023-01-21T06:54:46.596Z,-0.60
2023-01-21T06:57:18.373Z,-0.60
2023-01-21T06:59:46.476Z,-0.60
2023-01-21T07:02:16.902Z,-0.60
2023-01-21T07:04:45.571Z,-0.60
2023-01-21T07:07:13.657Z,-0.50
2023-01-21T07:09:41.760Z,-0.50
2023-01-21T07:12:10.186Z,-0.50
2023-01-21T07:14:39.741Z,-0.50
2023-01-21T07:17:10.277Z,-0.50
2023-01-21T07:19:40.688Z,-0.50
2023-01-21T07:22:10.871Z,-0.40
2023-01-21T07:24:39.121Z,-0.40
2023-01-21T07:27:10.050Z,-0.40
2023-01-21T07:29:39.558Z,-0.50
2023-01-21T07:32:07.657Z,-0.40
2023-01-21T07:34:35.820Z,-0.40
2023-01-21T07:37:03.987Z,-0.40
2023-01-21T07:39:32.012Z,-0.40
2023-01-21T07:42:00.149Z,-0.40
2023-01-21T07:44:28.291Z,-0.40
2023-01-21T07:46:57.726Z,-0.30
2023-01-21T07:49:25.830Z,-0.30
2023-01-21T07:51:57.424Z,-0.30
2023-01-21T07:54:25.703Z,-0.30
2023-01-21T07:56:53.846Z,-0.30
2023-01-21T07:59:24.448Z,-0.30
2023-01-21T08:01:53.058Z,-0.30
2023-01-21T08:04:22.671Z,-0.20
2023-01-21T08:06:56.950Z,-0.20
2023-01-21T08:09:25.412Z,-0.20
2023-01-21T08:11:53.566Z,-0.20
2023-01-21T08:14:23.734Z,-0.20
2023-01-21T08:16:51.838Z,-0.20
2023-01-21T08:19:19.924Z,-0.10
2023-01-21T08:21:52.193Z,-0.10
2023-01-21T08:24:22.735Z,-0.10
2023-01-21T08:26:53.345Z,-0.10
2023-01-21T08:29:21.423Z,-0.10
2023-01-21T08:31:49.585Z,-0.10
2023-01-21T08:34:17.691Z,-0.10
2023-01-21T08:36:45.764Z,-0.10
2023-01-21T08:39:16.301Z,0.00
2023-01-21T08:41:44.516Z,0.00
2023-01-21T08:44:12.667Z,0.00
2023-01-21T08:46:40.721Z,0.00
2023-01-21T08:49:08.966Z,0.00
2023-01-21T08:51:37.080Z,0.00
2023-01-21T08:54:08.341Z,0.00
2023-01-21T08:56:40.372Z,0.00
2023-01-21T08:59:11.024Z,0.00
2023-01-21T09:01:41.019Z,0.10
2023-01-21T09:04:09.818Z,0.10
2023-01-21T09:06:37.900Z,0.10
2023-01-21T09:09:08.426Z,0.10
2023-01-21T09:11:40.411Z,0.20
2023-01-21T09:14:11.074Z,0.20
2023-01-21T09:16:39.628Z,0.30
2023-01-21T09:19:09.993Z,0.30
2023-01-21T09:21:40.558Z,0.30
2023-01-21T09:24:11.557Z,0.40
2023-01-21T09:26:45.107Z,0.40
2023-01-21T09:29:13.267Z,0.40
2023-01-21T09:31:41.576Z,0.40
2023-01-21T09:34:12.390Z,0.50
2023-01-21T09:36:40.804Z,0.50
2023-01-21T09:39:09.370Z,0.50
2023-01-21T09:41:39.379Z,0.50
2023-01-21T09:44:20.607Z,0.60
2023-01-21T09:46:57.236Z,0.60
2023-01-21T09:49:29.648Z,0.60
2023-01-21T09:52:07.379Z,0.60
2023-01-21T09:54:37.122Z,0.60
2023-01-21T09:57:37.688Z,0.60
2023-01-21T10:00:25.766Z,0.70
2023-01-21T10:03:00.488Z,0.70
2023-01-21T10:06:09.389Z,0.70
2023-01-21T10:08:52.727Z,0.70
2023-01-21T10:11:35.862Z,0.70
2023-01-21T10:14:21.008Z,0.70
2023-01-21T10:17:01.123Z,0.70
2023-01-21T10:19:36.963Z,0.70
2023-01-21T10:22:11.082Z,0.70
2023-01-21T10:24:46.276Z,0.80
2023-01-21T10:27:18.012Z,0.80
2023-01-21T10:29:49.172Z,0.80
2023-01-21T10:32:23.382Z,0.90
2023-01-21T10:34:53.135Z,0.90
2023-01-21T10:37:28.409Z,0.80
2023-01-21T10:40:06.727Z,0.90
2023-01-21T10:42:51.442Z,0.90
2023-01-21T10:45:28.508Z,0.90
2023-01-21T10:48:06.999Z,0.90
2023-01-21T10:50:49.424Z,1.00
2023-01-21T10:53:24.513Z,1.00
2023-01-21T10:56:05.144Z,1.00
2023-01-21T10:58:37.740Z,1.00
2023-01-21T11:01:10.498Z,1.00
2023-01-21T11:03:43.355Z,1.00
2023-01-21T11:06:14.807Z,1.00
2023-01-21T11:08:48.527Z,1.10
2023-01-21T11:11:26.495Z,1.10
2023-01-21T11:13:55.166Z,1.10
2023-01-21T11:16:35.237Z,1.10
2023-01-21T11:19:08.471Z,1.20
2023-01-21T11:21:40.036Z,1.20
2023-01-21T11:24:23.092Z,1.20
2023-01-21T11:26:55.838Z,1.20
2023-01-21T11:29:27.508Z,1.20
2023-01-21T11:32:04.044Z,1.30
2023-01-21T11:34:34.441Z,1.20
2023-01-21T11:37:25.670Z,1.30
2023-01-21T11:40:01.152Z,1.30
2023-01-21T11:42:40.056Z,1.30
2023-01-21T11:45:32.297Z,1.30
2023-01-21T11:48:02.898Z,1.30
2023-01-21T11:50:37.659Z,1.40
2023-01-21T11:53:15.070Z,1.40
2023-01-21T11:55:46.705Z,1.40
2023-01-21T11:58:19.887Z,1.40
2023-01-21T12:00:53.009Z,1.40
2023-01-21T12:03:23.798Z,1.40
2023-01-21T12:05:54.766Z,1.40
2023-01-21T12:08:26.220Z,1.40
2023-01-21T12:10:56.071Z,1.40
2023-01-21T12:13:36.815Z,1.40
2023-01-21T12:16:28.060Z,1.40
2023-01-21T12:19:16.491Z,1.50
2023-01-21T12:22:00.018Z,1.50
2023-01-21T12:24:42.179Z,1.50
2023-01-21T12:27:22.129Z,1.50
2023-01-21T12:30:01.356Z,1.50
2023-01-21T12:32:38.054Z,1.50
2023-01-21T12:35:11.921Z,1.50
2023-01-21T12:37:49.271Z,1.50
2023-01-21T12:40:25.263Z,1.50
2023-01-21T12:42:57.099Z,1.60
2023-01-21T12:45:34.558Z,1.50
2023-01-21T12:48:05.900Z,1.50
2023-01-21T12:50:41.244Z,1.50
2023-01-21T12:53:21.042Z,1.50
2023-01-21T12:56:04.258Z,1.50
2023-01-21T12:58:38.683Z,1.40
2023-01-21T13:01:14.250Z,1.40
2023-01-21T13:03:51.458Z,1.50
2023-01-21T13:06:29.711Z,1.50
2023-01-21T13:09:18.805Z,1.50
2023-01-21T13:11:55.689Z,1.50
2023-01-21T13:14:31.273Z,1.50
2023-01-21T13:17:02.977Z,1.60
2023-01-21T13:19:31.104Z,1.60
2023-01-21T13:22:06.235Z,1.60
2023-01-21T13:24:57.129Z,1.60
2023-01-21T13:27:32.434Z,1.70
2023-01-21T13:30:10.828Z,1.70
2023-01-21T13:32:48.584Z,1.70
2023-01-21T13:35:26.568Z,1.70
2023-01-21T13:38:04.857Z,1.70
2023-01-21T13:40:48.589Z,1.80
2023-01-21T13:43:40.549Z,1.80
2023-01-21T13:46:26.013Z,1.80
2023-01-21T13:49:07.476Z,1.80
2023-01-21T13:51:47.030Z,1.90
2023-01-21T13:54:30.713Z,1.90
2023-01-21T13:57:16.474Z,1.90
2023-01-21T13:59:48.475Z,1.90
2023-01-21T14:02:22.392Z,1.90
2023-01-21T14:04:56.697Z,1.90
2023-01-21T14:07:29.059Z,1.90
2023-01-21T14:10:04.051Z,1.90
2023-01-21T14:12:58.726Z,1.90
2023-01-21T14:15:49.215Z,2.00
2023-01-21T14:18:48.061Z,2.00
2023-01-21T14:21:40.975Z,2.00
2023-01-21T14:24:37.596Z,2.00
2023-01-21T14:27:19.595Z,2.00
2023-01-21T14:29:55.694Z,2.00
2023-01-21T14:32:31.642Z,2.10
2023-01-21T14:35:14.827Z,2.10
2023-01-21T14:37:46.351Z,2.10
2023-01-21T14:40:19.631Z,2.10
2023-01-21T14:42:51.799Z,2.10
2023-01-21T14:45:25.708Z,2.10
2023-01-21T14:47:57.828Z,2.10
2023-01-21T14:51:12.127Z,2.10
2023-01-21T14:53:46.202Z,2.20
2023-01-21T14:56:21.009Z,2.10
2023-01-21T14:58:50.936Z,2.20
2023-01-21T15:01:34.250Z,2.20
2023-01-21T15:04:07.391Z,2.10
2023-01-21T15:06:40.750Z,2.10
2023-01-21T15:09:18.809Z,2.20
2023-01-21T15:11:46.935Z,2.10
2023-01-21T15:14:20.878Z,2.10
2023-01-21T15:16:50.435Z,2.10
2023-01-21T15:19:25.723Z,2.10
2023-01-21T15:22:10.340Z,2.10
2023-01-21T15:24:41.657Z,2.10
2023-01-21T15:27:18.339Z,2.10
2023-01-21T15:30:07.777Z,2.10
2023-01-21T15:32:39.527Z,2.00
2023-01-21T15:35:18.269Z,2.00
2023-01-21T15:37:49.810Z,2.00
2023-01-21T15:40:20.866Z,2.00
2023-01-21T15:42:56.664Z,2.00
2023-01-21T15:45:33.745Z,2.00
2023-01-21T15:48:16.110Z,1.90
2023-01-21T15:50:51.975Z,1.90
2023-01-21T15:53:41.009Z,1.90
2023-01-21T15:56:30.497Z,1.90
2023-01-21T15:59:10.998Z,1.90
2023-01-21T16:01:40.332Z,1.90
2023-01-21T16:04:26.335Z,1.90
2023-01-21T16:07:14.923Z,1.90
2023-01-21T16:09:55.953Z,1.80
2023-01-21T16:12:30.663Z,1.80
2023-01-21T16:15:11.053Z,1.80
2023-01-21T16:18:19.921Z,1.80
2023-01-21T16:20:53.789Z,1.80
2023-01-21T16:23:24.580Z,1.80
2023-01-21T16:25:54.069Z,1.80
2023-01-21T16:28:22.553Z,1.80
2023-01-21T16:30:55.935Z,1.70
2023-01-21T16:33:26.596Z,1.70
2023-01-21T16:35:57.810Z,1.70
2023-01-21T16:38:28.700Z,1.70
2023-01-21T16:41:22.431Z,1.70
2023-01-21T16:43:52.386Z,1.60
2023-01-21T16:46:24.722Z,1.60
2023-01-21T16:48:54.714Z,1.60
2023-01-21T16:51:30.145Z,1.60
2023-01-21T16:54:22.920Z,1.60
2023-01-21T16:56:53.159Z,1.60
2023-01-21T16:59:22.262Z,1.60
2023-01-21T17:01:52.501Z,1.60
2023-01-21T17:04:20.699Z,1.60
2023-01-21T17:06:51.740Z,1.60
2023-01-21T17:09:38.001Z,1.60
2023-01-21T17:12:09.083Z,1.60
2023-01-21T17:14:38.033Z,1.60
2023-01-21T17:17:09.403Z,1.50
2023-01-21T17:19:43.600Z,1.50
2023-01-21T17:22:20.339Z,1.50
2023-01-21T17:24:59.452Z,1.50
2023-01-21T17:27:28.373Z,1.50
2023-01-21T17:30:18.104Z,1.50
2023-01-21T17:32:55.094Z,1.50
2023-01-21T17:35:24.730Z,1.50
2023-01-21T17:37:56.623Z,1.50
2023-01-21T17:40:27.048Z,1.50
2023-01-21T17:42:55.847Z,1.50
2023-01-21T17:45:30.091Z,1.40
2023-01-21T17:48:09.505Z,1.40
2023-01-21T17:50:46.774Z,1.40
2023-01-21T17:53:23.921Z,1.40
2023-01-21T17:56:01.046Z,1.40
2023-01-21T17:58:44.325Z,1.40
2023-01-21T18:01:15.656Z,1.40
2023-01-21T18:03:43.960Z,1.40
2023-01-21T18:06:18.640Z,1.40
2023-01-21T18:08:50.436Z,1.30
2023-01-21T18:11:19.447Z,1.30
2023-01-21T18:13:50.069Z,1.30
2023-01-21T18:16:18.440Z,1.30
2023-01-21T18:18:46.562Z,1.30
2023-01-21T18:21:20.066Z,1.30
2023-01-21T18:23:49.894Z,1.20
2023-01-21T18:26:25.987Z,1.20
2023-01-21T18:28:54.141Z,1.20
2023-01-21T18:31:22.974Z,1.20
2023-01-21T18:33:53.482Z,1.20
2023-01-21T18:36:21.623Z,1.20
2023-01-21T18:38:51.223Z,1.20
2023-01-21T18:41:19.324Z,1.20
2023-01-21T18:43:47.493Z,1.20
2023-01-21T18:46:19.713Z,1.20
2023-01-21T18:48:47.986Z,1.20
2023-01-21T18:51:16.245Z,1.20
2023-01-21T18:53:44.571Z,1.10
2023-01-21T18:56:16.791Z,1.10
2023-01-21T18:58:44.901Z,1.10
2023-01-21T19:01:23.109Z,1.10
2023-01-21T19:03:55.698Z,1.10
2023-01-21T19:06:25.893Z,1.10
2023-01-21T19:08:56.601Z,1.10
2023-01-21T19:11:26.086Z,1.10
2023-01-21T19:13:54.171Z,1.10
2023-01-21T19:16:23.048Z,1.10
2023-01-21T19:18:54.241Z,1.10
2023-01-21T19:21:22.340Z,1.10
2023-01-21T19:23:50.457Z,1.10
2023-01-21T19:26:18.618Z,1.10
2023-01-21T19:28:48.069Z,1.10
2023-01-21T19:31:16.427Z,1.00
2023-01-21T19:33:45.748Z,1.00
2023-01-21T19:36:20.482Z,1.00
2023-01-21T19:38:55.261Z,1.00
2023-01-21T19:41:23.509Z,1.00
2023-01-21T19:43:53.108Z,1.00
2023-01-21T19:46:23.730Z,1.00
2023-01-21T19:48:53.752Z,1.00
2023-01-21T19:51:22.224Z,1.00
2023-01-21T19:53:53.195Z,1.00
2023-01-21T19:56:25.191Z,1.00
2023-01-21T19:58:54.947Z,1.00
2023-01-21T20:01:23.267Z,1.00
2023-01-21T20:04:00.242Z,1.00
2023-01-21T20:06:33.531Z,1.00
2023-01-21T20:09:02.371Z,1.00
2023-01-21T20:11:30.598Z,1.00
2023-01-21T20:14:00.159Z,1.00
2023-01-21T20:16:28.362Z,0.90
2023-01-21T20:18:56.556Z,0.90
2023-01-21T20:21:27.753Z,0.90
2023-01-21T20:23:56.025Z,0.90
2023-01-21T20:26:28.559Z,0.90
2023-01-21T20:29:00.054Z,0.80
2023-01-21T20:31:30.264Z,0.80
2023-01-21T20:33:58.658Z,0.80
2023-01-21T20:36:28.036Z,0.80
2023-01-21T20:38:56.709Z,0.80
2023-01-21T20:41:24.888Z,0.70
2023-01-21T20:43:53.186Z,0.70
2023-01-21T20:46:24.771Z,0.70
2023-01-21T20:48:54.724Z,0.70
2023-01-21T20:51:23.066Z,0.60
2023-01-21T20:53:53.531Z,0.60
2023-01-21T20:56:25.851Z,0.60
2023-01-21T20:58:54.330Z,0.60
2023-01-21T21:01:24.789Z,0.60
2023-01-21T21:03:54.320Z,0.60
2023-01-21T21:06:24.027Z,0.60
2023-01-21T21:08:54.641Z,0.60
2023-01-21T21:11:22.926Z,0.60
2023-01-21T21:13:52.387Z,0.60
2023-01-21T21:16:23.787Z,0.60
2023-01-21T21:18:52.221Z,0.60
2023-01-21T21:21:23.884Z,0.50
2023-01-21T21:23:52.856Z,0.50
2023-01-21T21:26:23.659Z,0.50
2023-01-21T21:28:54.538Z,0.50
2023-01-21T21:31:23.464Z,0.50
2023-01-21T21:33:51.985Z,0.50
2023-01-21T21:36:23.750Z,0.40
2023-01-21T21:38:55.529Z,0.40
2023-01-21T21:41:43.557Z,0.40
2023-01-21T21:44:12.353Z,0.40
2023-01-21T21:46:58.447Z,0.30
2023-01-21T21:49:26.950Z,0.40
2023-01-21T21:51:56.933Z,0.40
2023-01-21T21:54:27.433Z,0.30
2023-01-21T21:56:56.256Z,0.30
2023-01-21T21:59:24.657Z,0.30
2023-01-21T22:01:55.402Z,0.20
2023-01-21T22:04:23.776Z,0.30
2023-01-21T22:06:52.045Z,0.30
2023-01-21T22:09:21.859Z,0.30
2023-01-21T22:11:50.064Z,0.30
2023-01-21T22:14:20.503Z,0.30
2023-01-21T22:16:51.994Z,0.30
2023-01-21T22:19:20.343Z,0.40
2023-01-21T22:21:50.598Z,0.30
2023-01-21T22:24:19.128Z,0.40
2023-01-21T22:26:48.643Z,0.50
2023-01-21T22:29:19.300Z,0.50
2023-01-21T22:31:47.481Z,0.60
2023-01-21T22:34:18.106Z,0.70
2023-01-21T22:36:48.411Z,0.80
2023-01-21T22:39:19.006Z,0.80
2023-01-21T22:41:48.528Z,0.90
2023-01-21T22:44:19.179Z,0.90
2023-01-21T22:46:47.935Z,0.90
2023-01-21T22:49:16.128Z,0.90
2023-01-21T22:51:44.311Z,1.00
2023-01-21T22:54:12.563Z,1.00
2023-01-21T22:56:51.998Z,1.00
2023-01-21T22:59:22.649Z,1.00
2023-01-21T23:01:51.358Z,1.00
2023-01-21T23:04:19.741Z,1.00
2023-01-21T23:06:48.814Z,1.00
2023-01-21T23:09:17.683Z,1.00
2023-01-21T23:11:46.033Z,1.00
2023-01-21T23:14:14.207Z,1.10
2023-01-21T23:16:47.116Z,1.10
2023-01-21T23:19:15.708Z,1.00
2023-01-21T23:21:44.204Z,1.10
2023-01-21T23:24:12.438Z,1.10
2023-01-21T23:26:40.815Z,1.10
2023-01-21T23:29:09.086Z,1.10
2023-01-21T23:31:37.411Z,1.10
2023-01-21T23:34:09.209Z,1.10
2023-01-21T23:36:37.365Z,1.10
2023-01-21T23:39:05.498Z,1.10
2023-01-21T23:41:33.829Z,1.10
2023-01-21T23:44:02.488Z,1.10
2023-01-21T23:46:41.373Z,1.10
2023-01-21T23:49:14.675Z,1.10
2023-01-21T23:51:42.846Z,1.10
2023-01-21T23:54:14.082Z,1.10
2023-01-21T23:56:42.392Z,1.10
2023-01-21T23:59:10.514Z,1.10
